Time;durP1;ratioP1;P1;durP2;ratioP2;P2;SDS_P1;SDS_P2;PMS_P1;PMS_P2;Temp;Humidity;BMP_temperature;BMP_pressure;BME280_temperature;BME280_humidity;BME280_pressure;Samples;Min_cycle;Max_cycle;Signal;HPM_P1;HPM_P2
2022/01/11 00:00:35;;;;;;;14.63;9.68;;;3.40;77.40;;;;;;5011256;28;20520;-50
2022/01/11 00:03:16;;;;;;;13.45;8.02;;;3.40;77.50;;;;;;5023948;28;20040;-52
2022/01/11 00:05:52;;;;;;;22.90;9.57;;;3.30;77.40;;;;;;5019067;28;20117;-48
2022/01/11 00:08:28;;;;;;;16.17;9.73;;;3.30;77.50;;;;;;5005939;28;20064;-50
2022/01/11 00:11:03;;;;;;;14.93;10.00;;;3.30;77.50;;;;;;5022251;28;20046;-52
2022/01/11 00:13:33;;;;;;;18.13;10.15;;;3.30;77.40;;;;;;5031749;28;20049;-50
2022/01/11 00:16:01;;;;;;;23.50;10.57;;;3.30;77.30;;;;;;5018655;28;20386;-49
2022/01/11 00:18:28;;;;;;;17.30;10.45;;;3.30;77.20;;;;;;5008645;28;20050;-52
2022/01/11 00:20:55;;;;;;;15.55;9.95;;;3.20;77.20;;;;;;5022759;28;20045;-52
2022/01/11 00:25:54;;;;;;;20.20;11.07;;;3.20;76.90;;;;;;5011350;28;20560;-48
2022/01/11 00:28:23;;;;;;;16.88;10.88;;;3.20;76.80;;;;;;5016787;28;20076;-52
2022/01/11 00:31:16;;;;;;;18.08;10.50;;;3.10;76.60;;;;;;5006197;28;20468;-49
2022/01/11 00:33:46;;;;;;;17.27;10.27;;;3.10;76.40;;;;;;5011605;28;20049;-51
2022/01/11 00:36:14;;;;;;;18.88;9.98;;;3.10;76.30;;;;;;5002960;28;20045;-49
2022/01/11 00:38:41;;;;;;;18.27;10.68;;;3.00;76.10;;;;;;5011848;28;20053;-50
2022/01/11 00:41:11;;;;;;;14.95;10.90;;;3.00;76.10;;;;;;5020911;28;20519;-49
2022/01/11 00:43:39;;;;;;;16.10;9.77;;;2.90;75.90;;;;;;5030389;28;20099;-52
2022/01/11 00:46:07;;;;;;;14.70;9.95;;;2.90;76.00;;;;;;5018031;28;20378;-51
2022/01/11 00:48:39;;;;;;;15.60;10.23;;;2.80;76.00;;;;;;5019143;28;20096;-52
2022/01/11 00:51:09;;;;;;;14.63;9.52;;;2.80;75.90;;;;;;5028449;28;20096;-50
2022/01/11 00:53:39;;;;;;;16.05;9.32;;;2.70;75.70;;;;;;5030348;28;20046;-50
2022/01/11 00:56:09;;;;;;;19.50;11.47;;;2.70;75.70;;;;;;5004953;28;20045;-48
2022/01/11 00:58:36;;;;;;;16.77;10.00;;;2.60;75.60;;;;;;5021931;28;20678;-51
2022/01/11 01:01:03;;;;;;;18.00;10.32;;;2.60;75.70;;;;;;5028079;28;20437;-52
2022/01/11 01:03:30;;;;;;;16.08;11.10;;;2.50;75.70;;;;;;5030758;28;20033;-52
2022/01/11 01:05:57;;;;;;;17.10;10.38;;;2.50;75.90;;;;;;5011346;28;20122;-52
2022/01/11 01:08:27;;;;;;;16.13;10.68;;;2.40;76.10;;;;;;5018175;28;20473;-51
2022/01/11 01:10:54;;;;;;;20.40;11.25;;;2.40;76.20;;;;;;5027086;28;20045;-51
2022/01/11 01:13:28;;;;;;;15.97;10.93;;;2.40;76.40;;;;;;5008503;28;20053;-49
2022/01/11 01:15:59;;;;;;;17.25;10.70;;;2.40;76.50;;;;;;5004014;28;20038;-50
2022/01/11 01:18:48;;;;;;;16.92;10.65;;;2.40;76.70;;;;;;5017580;28;20041;-51
2022/01/11 01:21:16;;;;;;;19.55;11.13;;;2.40;76.90;;;;;;5009126;28;20037;-53
2022/01/11 01:23:42;;;;;;;17.73;10.68;;;2.40;77.20;;;;;;5005565;28;20046;-48
2022/01/11 01:26:10;;;;;;;17.40;10.38;;;2.40;77.50;;;;;;5012019;28;20033;-52
2022/01/11 01:28:39;;;;;;;19.45;12.25;;;2.40;77.70;;;;;;5012905;28;20046;-51
2022/01/11 01:31:06;;;;;;;20.75;11.93;;;2.50;78.10;;;;;;5009336;28;20046;-51
2022/01/11 01:33:35;;;;;;;19.33;11.13;;;2.50;78.30;;;;;;5005090;28;20043;-52
2022/01/11 01:36:11;;;;;;;36.17;11.18;;;2.50;78.30;;;;;;5018975;28;20049;-51
2022/01/11 01:38:42;;;;;;;24.85;11.80;;;2.60;78.40;;;;;;5025779;28;20042;-51
2022/01/11 01:41:15;;;;;;;25.23;12.73;;;2.60;78.30;;;;;;5015855;28;20044;-52
2022/01/11 01:43:47;;;;;;;31.88;12.13;;;2.60;78.30;;;;;;5020260;28;20061;-50
2022/01/11 01:46:15;;;;;;;21.67;10.65;;;2.70;78.40;;;;;;5012820;28;20046;-50
2022/01/11 01:48:43;;;;;;;19.60;11.55;;;2.80;78.40;;;;;;5029952;28;20038;-50
2022/01/11 01:51:16;;;;;;;32.80;13.05;;;2.80;78.30;;;;;;5007062;28;20046;-52
2022/01/11 01:53:46;;;;;;;20.05;11.18;;;2.80;78.20;;;;;;5010649;28;20096;-49
2022/01/11 01:56:14;;;;;;;21.05;11.48;;;2.90;78.10;;;;;;5009925;28;20037;-51
2022/01/11 01:58:42;;;;;;;21.83;12.77;;;2.90;78.00;;;;;;5009482;28;20049;-51
2022/01/11 02:01:12;;;;;;;15.45;10.20;;;2.90;77.90;;;;;;5006011;28;20048;-52
2022/01/11 02:03:41;;;;;;;20.42;10.23;;;3.00;77.80;;;;;;5018218;28;20239;-49
2022/01/11 02:06:17;;;;;;;19.80;11.50;;;2.90;77.60;;;;;;5000422;28;20137;-50
2022/01/11 02:08:45;;;;;;;24.70;11.82;;;3.00;77.60;;;;;;5007280;28;20046;-53
2022/01/11 02:11:18;;;;;;;18.13;9.80;;;3.00;77.40;;;;;;5003486;28;20045;-52
2022/01/11 02:13:48;;;;;;;17.52;10.85;;;3.00;77.30;;;;;;5019288;28;20041;-51
2022/01/11 02:16:20;;;;;;;21.73;11.10;;;3.00;77.20;;;;;;5013722;28;20056;-52
2022/01/11 02:18:53;;;;;;;24.27;12.07;;;3.00;77.20;;;;;;5007674;28;20093;-52
2022/01/11 02:21:21;;;;;;;19.33;11.18;;;3.00;77.20;;;;;;5014130;28;20049;-52
2022/01/11 02:23:52;;;;;;;28.55;10.65;;;3.00;77.20;;;;;;5024799;28;20122;-51
2022/01/11 02:26:22;;;;;;;20.48;9.80;;;3.10;77.20;;;;;;5007800;28;20050;-50
2022/01/11 02:28:50;;;;;;;21.13;10.48;;;3.10;77.10;;;;;;5004898;28;20042;-50
2022/01/11 02:31:19;;;;;;;17.92;10.02;;;3.00;77.10;;;;;;5015164;28;20045;-48
2022/01/11 02:33:57;;;;;;;20.60;10.88;;;3.10;77.30;;;;;;5020012;28;20420;-48
2022/01/11 02:36:33;;;;;;;18.10;9.73;;;3.00;77.30;;;;;;5028944;28;20485;-49
2022/01/11 02:39:23;;;;;;;18.15;9.85;;;3.00;77.20;;;;;;5007115;28;20185;-51
2022/01/11 02:41:56;;;;;;;16.00;10.55;;;3.10;77.30;;;;;;5015302;28;20436;-52
2022/01/11 02:44:34;;;;;;;16.00;9.52;;;3.10;77.20;;;;;;5022504;28;20049;-51
2022/01/11 02:47:01;;;;;;;17.83;10.07;;;3.10;77.10;;;;;;5015122;28;20503;-48
2022/01/11 02:49:33;;;;;;;12.77;7.07;;;3.10;77.10;;;;;;5008464;28;20045;-52
2022/01/11 02:52:23;;;;;;;18.98;10.10;;;3.10;77.10;;;;;;5005541;28;20053;-49
2022/01/11 02:54:57;;;;;;;21.55;10.70;;;3.10;77.00;;;;;;5007512;28;20054;-49
2022/01/11 02:57:26;;;;;;;25.92;11.38;;;3.10;76.90;;;;;;5003706;28;20432;-51
2022/01/11 02:59:58;;;;;;;21.73;10.82;;;3.10;76.90;;;;;;5022527;28;20037;-49
2022/01/11 03:02:26;;;;;;;22.60;10.25;;;3.20;77.00;;;;;;5021201;28;20049;-48
2022/01/11 03:04:54;;;;;;;33.50;9.90;;;3.10;77.00;;;;;;5022847;28;20173;-49
2022/01/11 03:07:22;;;;;;;22.33;10.32;;;3.10;76.90;;;;;;4998394;28;20057;-51
2022/01/11 03:10:04;;;;;;;16.65;9.23;;;3.10;77.00;;;;;;5023836;28;20054;-47
2022/01/11 03:12:43;;;;;;;16.05;8.65;;;3.10;77.10;;;;;;5013642;28;20629;-48
2022/01/11 03:15:11;;;;;;;16.73;9.30;;;3.20;77.40;;;;;;5008792;28;20049;-49
2022/01/11 03:17:40;;;;;;;19.00;10.10;;;3.20;77.60;;;;;;5024010;23;20034;-76
2022/01/11 03:20:08;;;;;;;23.50;10.07;;;3.20;77.60;;;;;;5028910;28;20042;-76
2022/01/11 03:22:35;;;;;;;29.08;10.75;;;3.20;77.70;;;;;;5006316;28;20065;-76
2022/01/11 03:25:05;;;;;;;19.05;9.02;;;3.20;77.60;;;;;;4994355;28;20520;-76
2022/01/11 03:27:34;;;;;;;20.17;10.40;;;3.20;77.50;;;;;;5004256;28;20037;-76
2022/01/11 03:30:04;;;;;;;22.77;9.45;;;3.20;77.50;;;;;;5008710;28;20037;-76
2022/01/11 03:32:31;;;;;;;21.95;9.27;;;3.30;77.60;;;;;;5010595;28;20136;-76
2022/01/11 03:35:11;;;;;;;21.70;9.65;;;3.30;77.60;;;;;;5008871;28;20045;-77
2022/01/11 03:37:42;;;;;;;39.15;10.85;;;3.30;77.60;;;;;;5030018;28;20051;-76
2022/01/11 03:40:13;;;;;;;34.85;10.55;;;3.30;77.60;;;;;;5009345;28;20603;-76
2022/01/11 03:42:40;;;;;;;23.83;11.40;;;3.30;77.70;;;;;;5008007;28;20048;-76
2022/01/11 03:45:09;;;;;;;30.55;10.57;;;3.30;77.70;;;;;;4983886;28;20038;-77
2022/01/11 03:47:37;;;;;;;25.65;10.68;;;3.40;77.80;;;;;;5041662;28;20065;-76
2022/01/11 03:50:06;;;;;;;19.15;10.23;;;3.40;77.80;;;;;;5029021;28;20046;-76
2022/01/11 03:52:34;;;;;;;23.17;10.48;;;3.40;77.70;;;;;;5028575;28;20096;-76
2022/01/11 03:55:05;;;;;;;21.23;10.95;;;3.40;77.70;;;;;;5008236;28;20042;-77
2022/01/11 03:57:40;;;;;;;20.45;11.15;;;3.40;77.70;;;;;;5010557;28;20053;-77
2022/01/11 04:00:14;;;;;;;25.35;11.20;;;3.40;77.70;;;;;;5028048;28;20041;-78
2022/01/11 04:02:44;;;;;;;32.60;11.35;;;3.50;77.80;;;;;;4989643;28;20442;-77
2022/01/11 04:05:16;;;;;;;27.23;11.13;;;3.50;77.70;;;;;;5007595;28;20557;-77
2022/01/11 04:07:43;;;;;;;21.50;9.75;;;3.50;77.60;;;;;;5026167;28;20386;-77
2022/01/11 04:10:12;;;;;;;22.38;9.90;;;3.50;77.40;;;;;;5008924;28;20513;-77
2022/01/11 04:12:39;;;;;;;27.60;11.52;;;3.50;77.30;;;;;;5006449;28;20042;-77
2022/01/11 04:15:08;;;;;;;22.63;9.45;;;3.50;77.30;;;;;;4984159;28;20068;-77
2022/01/11 04:17:35;;;;;;;23.52;10.30;;;3.50;77.30;;;;;;5015804;28;20049;-77
2022/01/11 04:20:02;;;;;;;24.35;10.10;;;3.50;77.30;;;;;;5023983;28;20049;-78
2022/01/11 04:22:30;;;;;;;19.65;9.70;;;3.50;77.20;;;;;;5008957;28;20050;-78
2022/01/11 04:24:57;;;;;;;26.88;10.25;;;3.50;77.10;;;;;;5017720;28;20049;-77
2022/01/11 04:27:25;;;;;;;31.23;9.80;;;3.50;76.80;;;;;;5021647;28;20073;-77
2022/01/11 04:29:51;;;;;;;25.20;9.07;;;3.50;76.80;;;;;;5018473;28;20065;-76
2022/01/11 04:32:20;;;;;;;19.98;9.30;;;3.50;76.70;;;;;;5003819;28;20076;-77
2022/01/11 04:34:47;;;;;;;20.23;8.93;;;3.50;76.80;;;;;;5000342;28;20042;-78
2022/01/11 04:37:14;;;;;;;21.50;9.93;;;3.40;76.80;;;;;;4989923;28;20050;-77
2022/01/11 04:39:41;;;;;;;21.10;9.90;;;3.40;76.80;;;;;;4998821;28;20045;-77
2022/01/11 04:42:08;;;;;;;18.90;10.10;;;3.40;76.90;;;;;;4992580;28;20048;-77
2022/01/11 04:44:35;;;;;;;20.17;8.90;;;3.40;76.90;;;;;;5022147;28;20048;-78
2022/01/11 04:47:02;;;;;;;16.83;7.85;;;3.40;76.90;;;;;;5028675;28;20126;-78
2022/01/11 04:49:28;;;;;;;22.98;9.23;;;3.40;76.90;;;;;;5010794;28;20409;-77
2022/01/11 04:51:56;;;;;;;16.75;9.13;;;3.40;76.90;;;;;;5005559;28;20054;-77
2022/01/11 04:54:23;;;;;;;17.60;8.77;;;3.50;76.90;;;;;;5020965;28;20051;-77
2022/01/11 04:56:51;;;;;;;19.15;8.63;;;3.40;76.90;;;;;;5024725;28;20052;-77
2022/01/11 04:59:18;;;;;;;20.73;9.60;;;3.40;76.90;;;;;;4992635;28;20045;-78
2022/01/11 05:01:45;;;;;;;24.02;9.70;;;3.40;76.90;;;;;;5012698;28;20069;-77
2022/01/11 05:04:13;;;;;;;24.83;11.02;;;3.40;76.80;;;;;;5018358;28;20042;-77
2022/01/11 05:06:40;;;;;;;20.90;9.68;;;3.40;76.60;;;;;;4989912;28;20048;-76
2022/01/11 05:09:07;;;;;;;22.63;11.27;;;3.40;76.50;;;;;;5008640;28;20057;-77
2022/01/11 05:11:34;;;;;;;27.25;11.68;;;3.40;76.50;;;;;;5027444;28;20051;-76
2022/01/11 05:14:01;;;;;;;21.67;10.25;;;3.30;76.50;;;;;;5026404;28;20053;-76
2022/01/11 05:16:47;;;;;;;25.33;9.50;;;3.30;76.60;;;;;;5004252;28;20046;-75
2022/01/11 05:19:14;;;;;;;18.60;9.35;;;3.30;76.60;;;;;;5006889;28;20115;-75
2022/01/11 05:21:44;;;;;;;20.80;9.52;;;3.30;76.70;;;;;;4999847;28;20037;-74
2022/01/11 05:24:12;;;;;;;18.55;9.13;;;3.30;76.80;;;;;;5008843;28;20026;-75
2022/01/11 05:26:39;;;;;;;20.50;8.82;;;3.30;76.80;;;;;;5010704;28;20648;-75
2022/01/11 05:29:06;;;;;;;20.70;10.23;;;3.30;76.80;;;;;;4997002;28;20061;-76
2022/01/11 05:31:34;;;;;;;17.88;8.88;;;3.30;76.90;;;;;;5010317;28;20044;-77
2022/01/11 05:34:03;;;;;;;18.38;9.10;;;3.30;76.90;;;;;;5004648;28;20410;-76
2022/01/11 05:36:30;;;;;;;16.77;8.60;;;3.30;77.00;;;;;;4999202;28;20178;-77
2022/01/11 05:38:57;;;;;;;16.33;8.63;;;3.30;77.00;;;;;;5006072;28;20081;-75
2022/01/11 05:41:24;;;;;;;13.88;8.65;;;3.30;77.10;;;;;;5013146;28;20074;-77
2022/01/11 05:43:52;;;;;;;17.45;8.27;;;3.30;77.00;;;;;;5016652;28;20045;-75
2022/01/11 05:46:19;;;;;;;14.27;7.93;;;3.30;77.50;;;;;;5013511;28;20033;-76
2022/01/11 05:48:46;;;;;;;16.38;8.27;;;3.30;76.80;;;;;;5016649;28;20030;-75
2022/01/11 05:51:15;;;;;;;14.43;8.00;;;3.30;76.60;;;;;;5009223;28;20540;-75
2022/01/11 05:53:42;;;;;;;15.85;9.18;;;3.30;76.50;;;;;;5015718;28;20050;-75
2022/01/11 05:56:12;;;;;;;15.85;8.10;;;3.40;76.50;;;;;;4993464;28;20042;-76
2022/01/11 05:58:39;;;;;;;13.93;7.82;;;3.30;76.30;;;;;;5022038;28;20387;-75
2022/01/11 06:01:08;;;;;;;13.50;7.47;;;3.30;76.40;;;;;;5006902;28;20088;-77
2022/01/11 06:03:35;;;;;;;16.10;7.32;;;3.20;76.40;;;;;;4989092;28;20131;-76
2022/01/11 06:06:03;;;;;;;14.63;6.93;;;3.30;76.50;;;;;;4987097;28;20069;-76
2022/01/11 06:08:33;;;;;;;18.08;7.50;;;3.30;76.40;;;;;;5005177;28;20458;-76
2022/01/11 06:11:01;;;;;;;16.05;6.60;;;3.20;76.40;;;;;;4998956;28;20054;-76
2022/01/11 06:13:31;;;;;;;19.88;8.40;;;3.20;76.40;;;;;;5005117;28;20045;-76
2022/01/11 06:15:58;;;;;;;17.25;7.82;;;3.20;76.30;;;;;;4986457;28;20424;-77
2022/01/11 06:18:25;;;;;;;16.08;7.38;;;3.20;76.40;;;;;;5022082;28;20049;-76
2022/01/11 06:21:04;;;;;;;14.98;7.80;;;3.20;77.10;;;;;;4991400;28;20494;-76
2022/01/11 06:23:31;;;;;;;14.45;7.20;;;3.20;76.40;;;;;;5005398;28;20133;-76
2022/01/11 06:25:58;;;;;;;15.40;7.72;;;3.20;76.40;;;;;;5015150;28;20046;-73
2022/01/11 06:28:25;;;;;;;17.95;8.13;;;3.20;77.00;;;;;;5013587;28;20049;-73
2022/01/11 06:30:52;;;;;;;18.52;8.88;;;3.20;76.50;;;;;;4992130;28;20060;-72
2022/01/11 06:33:19;;;;;;;14.75;8.23;;;3.20;76.50;;;;;;4989900;28;20742;-73
2022/01/11 06:35:46;;;;;;;12.98;7.85;;;3.20;76.60;;;;;;4986093;28;20138;-73
2022/01/11 06:38:14;;;;;;;28.88;9.05;;;3.20;76.80;;;;;;5004079;28;20050;-73
2022/01/11 06:40:43;;;;;;;13.65;8.27;;;3.10;76.70;;;;;;4994578;28;20126;-72
2022/01/11 06:43:10;;;;;;;14.20;8.77;;;3.10;76.60;;;;;;5003827;28;20046;-73
2022/01/11 06:45:38;;;;;;;21.30;9.32;;;3.20;76.70;;;;;;4992133;28;20390;-73
2022/01/11 06:48:09;;;;;;;24.40;8.40;;;3.20;76.60;;;;;;4993755;28;20403;-72
2022/01/11 06:50:36;;;;;;;22.70;9.77;;;3.20;76.60;;;;;;5004531;28;20593;-72
2022/01/11 06:53:04;;;;;;;18.60;9.13;;;3.20;76.60;;;;;;4990095;28;20054;-73
2022/01/11 06:55:33;;;;;;;14.85;8.05;;;3.10;76.50;;;;;;5007103;28;20046;-73
2022/01/11 06:58:05;;;;;;;13.57;8.57;;;3.20;76.60;;;;;;5008573;28;20765;-73
2022/01/11 07:00:32;;;;;;;13.85;8.15;;;3.20;76.40;;;;;;5006189;28;20050;-73
2022/01/11 07:03:04;;;;;;;15.90;8.65;;;3.20;76.40;;;;;;5005840;28;20138;-73
2022/01/11 07:05:51;;;;;;;13.70;7.78;;;3.20;76.40;;;;;;5008265;28;20060;-73
2022/01/11 07:08:19;;;;;;;19.02;8.88;;;3.10;76.30;;;;;;5010259;28;20141;-73
2022/01/11 07:10:47;;;;;;;24.90;9.00;;;3.10;76.20;;;;;;5000711;28;20058;-73
2022/01/11 07:13:15;;;;;;;21.05;8.95;;;3.10;76.20;;;;;;5011202;28;20058;-73
2022/01/11 07:15:42;;;;;;;17.02;8.93;;;3.10;76.30;;;;;;5012756;28;20133;-73
2022/01/11 07:18:12;;;;;;;12.80;8.02;;;3.10;76.30;;;;;;5008996;28;20052;-73
2022/01/11 07:20:44;;;;;;;16.60;8.55;;;3.10;76.30;;;;;;5001051;28;20070;-72
2022/01/11 07:23:19;;;;;;;19.17;9.45;;;3.10;76.30;;;;;;5008731;28;20065;-73
2022/01/11 07:25:47;;;;;;;18.27;9.18;;;3.10;76.40;;;;;;5008962;28;20050;-73
2022/01/11 07:28:15;;;;;;;18.10;8.68;;;3.10;76.40;;;;;;5014858;28;20034;-73
2022/01/11 07:30:44;;;;;;;23.52;8.52;;;3.10;76.40;;;;;;4985984;28;20046;-73
2022/01/11 07:33:11;;;;;;;20.77;9.98;;;3.10;76.40;;;;;;5024761;28;20056;-73
2022/01/11 07:35:38;;;;;;;22.17;8.52;;;3.10;77.00;;;;;;5004670;28;20050;-73
2022/01/11 07:38:05;;;;;;;23.35;9.20;;;3.10;76.50;;;;;;5000396;28;20384;-73
2022/01/11 07:40:32;;;;;;;22.30;8.15;;;3.10;76.60;;;;;;5004825;28;20060;-73
2022/01/11 07:43:09;;;;;;;22.38;9.43;;;3.10;76.60;;;;;;5003417;28;20073;-73
2022/01/11 07:45:43;;;;;;;20.27;9.80;;;3.20;76.70;;;;;;5007449;28;20042;-73
2022/01/11 07:48:11;;;;;;;17.52;9.10;;;3.20;76.70;;;;;;5021918;28;20066;-73
2022/01/11 07:50:44;;;;;;;21.10;8.32;;;3.20;76.80;;;;;;5009327;28;20046;-73
2022/01/11 07:53:11;;;;;;;23.85;9.25;;;3.20;76.80;;;;;;5008561;28;20421;-72
2022/01/11 07:55:44;;;;;;;21.42;10.43;;;3.20;76.70;;;;;;5006852;28;20145;-73
2022/01/11 07:58:14;;;;;;;20.35;8.57;;;3.20;76.60;;;;;;4998500;28;20056;-73
2022/01/11 08:00:42;;;;;;;23.83;8.88;;;3.20;76.60;;;;;;5006553;28;20065;-72
2022/01/11 08:03:12;;;;;;;20.98;8.52;;;3.20;76.60;;;;;;5022245;28;20121;-73
2022/01/11 08:06:04;;;;;;;21.63;8.95;;;3.20;76.60;;;;;;5008861;28;20054;-73
2022/01/11 08:08:32;;;;;;;21.38;7.88;;;3.20;76.60;;;;;;4995680;28;20046;-76
2022/01/11 08:11:00;;;;;;;20.67;9.15;;;3.30;76.50;;;;;;5007224;28;20100;-73
2022/01/11 08:13:28;;;;;;;14.95;7.88;;;3.30;76.50;;;;;;5008492;28;20058;-73
2022/01/11 08:15:55;;;;;;;15.55;8.73;;;3.30;76.50;;;;;;5001025;28;20501;-73
2022/01/11 08:18:22;;;;;;;12.80;6.97;;;3.30;76.50;;;;;;5023641;28;20527;-82
2022/01/11 08:20:50;;;;;;;17.95;8.98;;;3.30;76.50;;;;;;5012514;28;20050;-75
2022/01/11 08:23:18;;;;;;;15.75;7.80;;;3.30;77.20;;;;;;5006304;28;20061;-73
2022/01/11 08:25:45;;;;;;;16.52;9.10;;;3.30;76.50;;;;;;5000894;28;20101;-73
2022/01/11 08:28:13;;;;;;;16.63;9.38;;;3.30;76.50;;;;;;5006697;28;20124;-74
2022/01/11 08:30:44;;;;;;;28.13;9.15;;;3.30;76.50;;;;;;5010773;28;20132;-73
2022/01/11 08:33:14;;;;;;;15.75;8.18;;;3.30;77.10;;;;;;5004224;28;20041;-73
2022/01/11 08:35:42;;;;;;;11.50;7.53;;;3.40;76.40;;;;;;5008384;28;20145;-73
2022/01/11 08:38:11;;;;;;;18.92;8.18;;;3.40;76.50;;;;;;5006585;28;20049;-74
2022/01/11 08:40:38;;;;;;;15.30;8.13;;;3.40;76.60;;;;;;4991280;28;20126;-73
2022/01/11 08:43:07;;;;;;;15.27;8.05;;;3.40;76.60;;;;;;5009081;28;20052;-73
2022/01/11 08:45:37;;;;;;;16.40;8.90;;;3.40;76.70;;;;;;4995831;28;20068;-73
2022/01/11 08:48:10;;;;;;;15.80;8.10;;;3.50;76.80;;;;;;4995766;28;20092;-73
2022/01/11 08:50:43;;;;;;;14.10;7.38;;;3.50;76.70;;;;;;4998819;28;20054;-73
2022/01/11 08:53:11;;;;;;;21.92;8.90;;;3.60;76.70;;;;;;5018867;28;20053;-73
2022/01/11 08:55:39;;;;;;;14.13;8.23;;;3.60;76.70;;;;;;5026901;28;20053;-73
2022/01/11 08:58:07;;;;;;;16.27;8.40;;;3.60;76.70;;;;;;5037280;23;20062;-50
2022/01/11 09:00:34;;;;;;;19.95;8.68;;;3.70;76.70;;;;;;5017836;28;20041;-50
2022/01/11 09:03:07;;;;;;;16.85;7.35;;;3.70;76.60;;;;;;5001485;28;20039;-48
2022/01/11 09:05:40;;;;;;;15.85;8.32;;;3.70;76.50;;;;;;5009403;28;20038;-48
2022/01/11 09:08:10;;;;;;;21.13;9.55;;;3.70;76.40;;;;;;4997734;28;20568;-51
2022/01/11 09:10:38;;;;;;;20.75;9.23;;;3.80;76.40;;;;;;4990363;28;20469;-48
2022/01/11 09:13:04;;;;;;;16.13;9.10;;;3.80;76.30;;;;;;4987641;28;20049;-50
2022/01/11 09:15:33;;;;;;;15.80;9.23;;;3.80;76.30;;;;;;4998226;28;20517;-50
2022/01/11 09:18:03;;;;;;;22.98;10.10;;;3.90;76.40;;;;;;4985343;28;20053;-50
2022/01/11 09:20:31;;;;;;;18.08;9.23;;;3.90;76.40;;;;;;5004090;28;20049;-51
2022/01/11 09:22:58;;;;;;;18.20;8.38;;;3.90;76.40;;;;;;5008834;23;20046;-76
2022/01/11 09:25:28;;;;;;;16.48;9.00;;;4.00;76.40;;;;;;5042912;28;20049;-76
2022/01/11 09:28:03;;;;;;;17.80;8.55;;;4.00;76.20;;;;;;5034758;28;20064;-75
2022/01/11 09:30:32;;;;;;;21.13;8.82;;;4.00;76.10;;;;;;5020905;28;20053;-76
2022/01/11 09:33:00;;;;;;;22.13;9.35;;;4.10;76.10;;;;;;5028665;28;20065;-76
2022/01/11 09:35:29;;;;;;;16.13;8.20;;;4.10;76.10;;;;;;5022256;28;20424;-76
2022/01/11 09:38:12;;;;;;;14.15;8.20;;;4.20;76.00;;;;;;5019956;28;20049;-76
2022/01/11 09:40:40;;;;;;;17.15;9.07;;;4.20;76.10;;;;;;5017010;28;20046;-76
2022/01/11 09:43:09;;;;;;;13.80;7.90;;;4.20;76.20;;;;;;5040439;28;20046;-76
2022/01/11 09:45:37;;;;;;;21.42;9.30;;;4.20;76.20;;;;;;5026528;28;20047;-76
2022/01/11 09:48:05;;;;;;;17.73;9.30;;;4.30;76.30;;;;;;5026048;28;20501;-76
2022/01/11 09:50:37;;;;;;;21.40;10.18;;;4.30;76.30;;;;;;5021233;28;20050;-76
2022/01/11 09:53:08;;;;;;;15.00;8.73;;;4.40;76.20;;;;;;5034956;28;20072;-76
2022/01/11 09:55:39;;;;;;;19.58;9.85;;;4.40;76.20;;;;;;5027380;28;20045;-76
2022/01/11 09:58:07;;;;;;;19.88;9.50;;;4.40;76.10;;;;;;5010210;28;20458;-76
2022/01/11 10:00:49;;;;;;;19.20;10.27;;;4.40;76.00;;;;;;5027889;28;20049;-76
2022/01/11 10:04:07;;;;;;;18.10;9.55;;;4.50;75.80;;;;;;5024203;28;20046;-76
2022/01/11 10:06:53;;;;;;;14.95;8.98;;;4.50;75.30;;;;;;5024872;28;20528;-76
2022/01/11 10:09:22;;;;;;;18.67;10.30;;;4.50;75.20;;;;;;5007515;28;20240;-76
2022/01/11 10:11:51;;;;;;;17.08;9.23;;;4.50;75.20;;;;;;5025801;28;20448;-76
2022/01/11 10:14:20;;;;;;;16.52;9.95;;;4.50;75.20;;;;;;5026956;28;20606;-76
2022/01/11 10:16:49;;;;;;;21.23;10.38;;;4.50;75.30;;;;;;5016421;28;20073;-76
2022/01/11 10:19:35;;;;;;;20.13;9.45;;;4.50;75.40;;;;;;5038184;28;20042;-77
2022/01/11 10:22:09;;;;;;;20.88;9.95;;;4.40;75.20;;;;;;5011085;28;20539;-76
2022/01/11 10:24:42;;;;;;;17.80;9.68;;;4.40;75.20;;;;;;5039509;28;20048;-76
2022/01/11 10:27:34;;;;;;;17.42;9.70;;;4.40;75.20;;;;;;5020844;28;20045;-76
2022/01/11 10:30:07;;;;;;;21.85;10.48;;;4.40;75.20;;;;;;5025122;28;20492;-76
2022/01/11 10:32:38;;;;;;;17.75;9.57;;;4.40;75.20;;;;;;5006855;28;20095;-76
2022/01/11 10:35:25;;;;;;;23.83;10.73;;;4.30;75.30;;;;;;5020810;28;20076;-77
2022/01/11 10:38:28;;;;;;;31.02;11.23;;;4.30;75.30;;;;;;5030067;28;20042;-76
2022/01/11 10:41:02;;;;;;;22.05;11.10;;;4.30;75.50;;;;;;5025800;28;20167;-76
2022/01/11 10:43:42;;;;;;;24.38;12.13;;;4.20;75.60;;;;;;5028963;28;20461;-76
2022/01/11 10:46:13;;;;;;;19.27;11.27;;;4.20;75.70;;;;;;5021287;28;20050;-76
2022/01/11 10:48:44;;;;;;;15.88;10.15;;;4.20;75.80;;;;;;5025759;28;20052;-76
2022/01/11 10:51:15;;;;;;;22.48;11.55;;;4.20;76.00;;;;;;5024934;28;20049;-76
2022/01/11 10:53:49;;;;;;;20.38;12.30;;;4.20;76.20;;;;;;5015953;28;20042;-76
2022/01/11 10:56:19;;;;;;;19.23;10.45;;;4.20;76.30;;;;;;5010679;28;20500;-76
2022/01/11 10:59:08;;;;;;;25.30;11.18;;;4.20;76.40;;;;;;5023773;28;20121;-76
2022/01/11 11:01:35;;;;;;;22.52;11.85;;;4.20;76.60;;;;;;5024603;28;20045;-76
2022/01/11 11:04:04;;;;;;;22.23;11.68;;;4.20;76.70;;;;;;5020248;28;20065;-76
2022/01/11 11:06:31;;;;;;;22.80;11.35;;;4.20;76.80;;;;;;5023511;28;20065;-76
2022/01/11 11:09:01;;;;;;;21.80;10.63;;;4.20;76.80;;;;;;5024650;28;20030;-76
2022/01/11 11:11:42;;;;;;;21.15;11.13;;;4.20;76.90;;;;;;5017030;28;20057;-76
2022/01/11 11:14:15;;;;;;;22.75;11.95;;;4.20;76.90;;;;;;5011768;28;20049;-76
2022/01/11 11:16:54;;;;;;;22.65;11.05;;;4.20;77.00;;;;;;5022522;28;20080;-76
2022/01/11 11:19:23;;;;;;;19.83;11.40;;;4.20;77.00;;;;;;5024437;28;20493;-76
2022/01/11 11:21:58;;;;;;;22.67;11.35;;;4.20;77.10;;;;;;5017207;28;20108;-76
2022/01/11 11:24:25;;;;;;;21.67;10.43;;;4.20;77.10;;;;;;5018258;28;20057;-76
2022/01/11 11:26:53;;;;;;;23.63;11.75;;;4.20;77.20;;;;;;5025421;28;20050;-76
2022/01/11 11:29:22;;;;;;;20.40;10.85;;;4.30;77.30;;;;;;5019419;28;20045;-76
2022/01/11 11:32:10;;;;;;;23.90;11.45;;;4.30;77.30;;;;;;5025962;28;20398;-76
2022/01/11 11:34:38;;;;;;;22.27;12.30;;;4.30;77.40;;;;;;5029687;28;20124;-76
2022/01/11 11:37:07;;;;;;;20.70;11.43;;;4.30;77.40;;;;;;5027708;28;20045;-76
2022/01/11 11:39:34;;;;;;;23.73;11.80;;;4.30;77.50;;;;;;5030429;28;20128;-76
2022/01/11 11:42:04;;;;;;;24.05;13.00;;;4.40;77.10;;;;;;5017651;28;20125;-76
2022/01/11 11:44:36;;;;;;;23.70;11.68;;;4.40;77.70;;;;;;5024647;28;20038;-76
2022/01/11 11:47:06;;;;;;;23.50;12.25;;;4.40;77.90;;;;;;5027685;28;20128;-76
2022/01/11 11:49:54;;;;;;;21.85;11.75;;;4.40;77.90;;;;;;5042255;28;20053;-77
2022/01/11 11:52:39;;;;;;;23.52;13.18;;;4.50;78.00;;;;;;5006284;28;20401;-77
2022/01/11 11:55:27;;;;;;;19.95;11.82;;;4.50;77.90;;;;;;5030595;28;20041;-76
2022/01/11 11:58:06;;;;;;;23.38;11.73;;;4.60;78.00;;;;;;5045611;28;20140;-76
2022/01/11 12:00:41;;;;;;;22.45;11.57;;;4.60;78.00;;;;;;5028684;28;20058;-76
2022/01/11 12:03:24;;;;;;;24.02;12.82;;;4.70;78.70;;;;;;5055753;28;20040;-76
2022/01/11 12:05:53;;;;;;;22.77;11.85;;;4.70;78.10;;;;;;5033174;28;20061;-76
2022/01/11 12:08:33;;;;;;;20.58;10.75;;;4.70;78.00;;;;;;5027690;28;20052;-76
2022/01/11 12:11:04;;;;;;;36.60;12.75;;;4.80;78.20;;;;;;5032778;28;20045;-76
2022/01/11 12:13:37;;;;;;;28.13;12.23;;;4.80;78.20;;;;;;5027411;28;20156;-76
2022/01/11 12:16:24;;;;;;;26.67;12.25;;;4.90;78.30;;;;;;5025173;28;20046;-76
2022/01/11 12:18:58;;;;;;;24.20;10.68;;;4.90;78.50;;;;;;5003138;28;20045;-76
2022/01/11 12:21:28;;;;;;;23.27;12.77;;;5.00;78.40;;;;;;5041070;28;20069;-77
2022/01/11 12:23:59;;;;;;;22.83;12.25;;;5.00;78.30;;;;;;5046127;28;20040;-77
2022/01/11 12:26:29;;;;;;;22.73;11.32;;;5.00;78.20;;;;;;5043711;28;20050;-77
2022/01/11 12:29:17;;;;;;;23.77;13.25;;;5.10;78.10;;;;;;5013215;28;20444;-76
2022/01/11 12:31:54;;;;;;;25.00;11.80;;;5.20;78.30;;;;;;5025796;28;20497;-76
2022/01/11 12:34:46;;;;;;;28.10;12.00;;;5.20;78.10;;;;;;5027818;28;20052;-76
2022/01/11 12:37:52;;;;;;;23.55;12.85;;;5.20;78.10;;;;;;5027215;28;20562;-76
2022/01/11 12:40:29;;;;;;;23.27;13.40;;;5.20;77.90;;;;;;5029020;28;20049;-76
2022/01/11 12:42:59;;;;;;;28.30;14.00;;;5.20;77.80;;;;;;5028436;28;20049;-76
2022/01/11 12:45:54;;;;;;;26.55;13.68;;;5.20;77.80;;;;;;5026307;28;20050;-76
2022/01/11 12:48:53;;;;;;;29.45;13.05;;;5.30;78.00;;;;;;5017264;28;20709;-76
2022/01/11 12:51:29;;;;;;;20.33;11.82;;;5.20;77.90;;;;;;5037967;28;20053;-76
2022/01/11 12:54:17;;;;;;;19.80;11.57;;;5.20;77.80;;;;;;5031980;28;20501;-76
2022/01/11 12:56:46;;;;;;;21.33;11.98;;;5.20;77.90;;;;;;5023151;28;20050;-76
2022/01/11 12:59:14;;;;;;;25.33;13.07;;;5.20;77.80;;;;;;5036201;28;20539;-76
2022/01/11 13:01:41;;;;;;;23.60;12.88;;;5.20;77.90;;;;;;5025261;28;20046;-76
2022/01/11 13:04:08;;;;;;;29.25;14.90;;;5.20;78.00;;;;;;5038623;28;20099;-76
2022/01/11 13:06:37;;;;;;;24.50;12.23;;;5.30;78.30;;;;;;5019487;28;20056;-76